Time,TemperatureF,DewpointF,PressureIn,WindDirection,WindDirectionDegrees,WindSpeedMPH,WindSpeedGustMPH,Humidity,HourlyPrecipIn,Conditions,Clouds,dailyrainin,SoftwareType,DateUTC
2013-09-04 00:12:00,71.0,63.0,29.97,ENE,60,0.0,4.0,75,0.00,,,0.00,,2013-09-04 05:12:00,
2013-09-04 00:23:00,71.0,63.0,29.97,ENE,60,0.0,4.0,75,0.00,,,0.00,,2013-09-04 05:23:00,
2013-09-04 00:53:00,70.0,62.0,29.98,NE,48,0.0,1.0,76,0.00,,,0.00,,2013-09-04 05:53:00,
2013-09-04 01:22:00,70.0,62.0,29.98,NE,42,0.0,2.0,76,0.00,,,0.00,,2013-09-04 06:22:00,
2013-09-04 01:52:00,69.0,62.0,29.98,NE,37,0.0,1.0,79,0.00,,,0.00,,2013-09-04 06:52:00,
2013-09-04 02:22:00,68.0,61.0,29.98,North,0,0.0,0.0,79,0.00,,,0.00,,2013-09-04 07:22:00,
2013-09-04 02:52:00,67.0,62.0,29.98,North,0,0.0,0.0,83,0.00,,,0.00,,2013-09-04 07:52:00,
2013-09-04 03:22:00,66.0,61.0,29.98,North,0,0.0,0.0,85,0.00,,,0.00,,2013-09-04 08:22:00,
2013-09-04 03:52:00,67.0,61.0,29.98,NE,37,0.0,1.0,82,0.00,,,0.00,,2013-09-04 08:52:00,
2013-09-04 04:22:00,66.0,60.0,29.98,North,0,0.0,0.0,82,0.00,,,0.00,,2013-09-04 09:22:00,
2013-09-04 04:43:00,65.0,60.0,29.98,North,0,0.0,0.0,84,0.00,,,0.00,,2013-09-04 09:43:00,
2013-09-04 04:53:00,64.0,60.0,29.98,North,0,0.0,0.0,87,0.00,,,0.00,,2013-09-04 09:53:00,
2013-09-04 05:23:00,63.0,60.0,29.98,North,0,0.0,0.0,90,0.00,,,0.00,,2013-09-04 10:23:00,
2013-09-04 05:52:00,62.0,59.0,29.98,North,0,0.0,0.0,91,0.00,,,0.00,,2013-09-04 10:52:00,
2013-09-04 06:22:00,62.0,60.0,30.00,North,0,0.0,0.0,92,0.00,,,0.00,,2013-09-04 11:22:00,
2013-09-04 06:52:00,61.0,59.0,30.01,North,0,0.0,0.0,93,0.00,,,0.00,,2013-09-04 11:52:00,
2013-09-04 07:21:00,61.0,60.0,30.02,North,0,0.0,0.0,95,0.00,,,0.00,,2013-09-04 12:21:00,
2013-09-04 07:52:00,64.0,63.0,30.04,North,0,0.0,0.0,95,0.00,,,0.00,,2013-09-04 12:52:00,
2013-09-04 09:21:00,75.0,62.0,30.06,NE,37,0.0,2.0,65,0.00,,,0.00,,2013-09-04 14:21:00,
2013-09-04 09:52:00,76.0,63.0,30.07,NE,38,0.0,2.0,64,0.00,,,0.00,,2013-09-04 14:52:00,
2013-09-04 10:22:00,76.0,62.0,30.07,ENE,59,0.0,5.0,63,0.00,,,0.00,,2013-09-04 15:22:00,
2013-09-04 10:53:00,77.0,59.0,30.08,ENE,69,1.0,6.0,54,0.00,,,0.00,,2013-09-04 15:53:00,
2013-09-04 11:23:00,78.0,61.0,30.08,NE,50,0.0,5.0,56,0.00,,,0.00,,2013-09-04 16:23:00,
2013-09-04 11:53:00,78.0,60.0,30.08,East,79,0.0,3.0,54,0.00,,,0.00,,2013-09-04 16:53:00,
2013-09-04 12:23:00,79.0,61.0,30.08,NE,39,1.0,6.0,54,0.00,,,0.00,,2013-09-04 17:23:00,
2013-09-04 12:52:00,79.0,61.0,30.07,NE,40,0.0,3.0,54,0.00,,,0.00,,2013-09-04 17:52:00,
2013-09-04 13:22:00,80.0,62.0,30.07,NNE,26,0.0,3.0,54,0.00,,,0.00,,2013-09-04 18:22:00,
2013-09-04 13:52:00,79.0,62.0,30.06,NNE,18,1.0,6.0,56,0.00,,,0.00,,2013-09-04 18:52:00,
2013-09-04 14:22:00,79.0,60.0,30.06,NW,320,0.0,3.0,53,0.00,,,0.00,,2013-09-04 19:22:00,
2013-09-04 14:52:00,80.0,63.0,30.05,North,350,1.0,4.0,56,0.00,,,0.00,,2013-09-04 19:52:00,
2013-09-04 15:22:00,80.0,60.0,30.04,North,4,0.0,6.0,50,0.00,,,0.00,,2013-09-04 20:22:00,
2013-09-04 15:53:00,81.0,61.0,30.04,NNE,21,0.0,3.0,50,0.00,,,0.00,,2013-09-04 20:53:00,
2013-09-04 16:22:00,81.0,60.0,30.03,NE,47,0.0,2.0,49,0.00,,,0.00,,2013-09-04 21:22:00,
2013-09-04 16:54:00,81.0,60.0,30.03,NE,40,0.0,2.0,49,0.00,,,0.00,,2013-09-04 21:54:00,
2013-09-04 17:23:00,81.0,61.0,30.02,NNE,16,0.0,3.0,50,0.00,,,0.00,,2013-09-04 22:23:00,
2013-09-04 17:54:00,80.0,61.0,30.02,North,1,0.0,5.0,52,0.00,,,0.00,,2013-09-04 22:54:00,
2013-09-04 18:22:00,80.0,62.0,30.02,North,0,0.0,0.0,54,0.00,,,0.00,,2013-09-04 23:22:00,
2013-09-04 18:52:00,80.0,65.0,30.02,North,0,0.0,0.0,61,0.00,,,0.00,,2013-09-04 23:52:00,
2013-09-04 19:11:00,80.0,65.0,30.02,North,0,0.0,0.0,61,0.00,,,0.00,,2013-09-05 00:11:00,
2013-09-04 19:22:00,79.0,66.0,30.02,North,0,0.0,0.0,64,0.00,,,0.00,,2013-09-05 00:22:00,
2013-09-04 19:52:00,74.0,66.0,30.02,North,0,0.0,0.0,76,0.00,,,0.00,,2013-09-05 00:52:00,
2013-09-04 20:22:00,70.0,64.0,30.03,North,0,0.0,0.0,81,0.00,,,0.00,,2013-09-05 01:22:00,
2013-09-04 20:52:00,68.0,63.0,30.04,North,0,0.0,0.0,85,0.00,,,0.00,,2013-09-05 01:52:00,
2013-09-04 21:22:00,67.0,63.0,30.05,North,0,0.0,0.0,88,0.00,,,0.00,,2013-09-05 02:22:00,
2013-09-04 22:22:00,66.0,63.0,30.06,North,0,0.0,0.0,90,0.00,,,0.00,,2013-09-05 03:22:00,
2013-09-04 22:54:00,65.0,62.0,30.07,North,0,0.0,0.0,91,0.00,,,0.00,,2013-09-05 03:54:00,
2013-09-04 23:24:00,66.0,63.0,30.08,NNE,23,0.0,2.0,91,0.00,,,0.00,,2013-09-05 04:24:00,
2013-09-04 23:53:00,65.0,61.0,30.07,North,0,0.0,0.0,88,0.00,,,0.00,,2013-09-05 04:53:00,